Portada
METAR-TAF:

METAR-TAF

Aeropuertos :

Uherské Hradiště, República Checa

latitud: 49-01-46N, longitud: 017-26-23E, altitud: 177 m

Observación

El informe se hizo hace 30 minutos, a las 10:00 UTC
Viento 15 kt del norte con ráfagas de 25 kt
Temperatura 4°C
Humedad 75%
Presión 1011 hPa
Visibilidad 10 km o más
Nubes dispersas a una altura de 2100 ft

METAR: LKKU 281000Z 36015G25KT 9999 SCT021 04/M00 Q1011

Hora: 11:30 (10:30 UTC)


TAF: falta

Observaciones y pronósticos meteorológicos de más de 4000 aeropuertos (mensajes METAR y TAF).

Los puntos amarillos y rojos representan las estaciones disponibles.

Ponga el ratón en el punto deseado para ver el nombre de la estación.

Haga clic para ver las observaciones y los pronósticos meteorológicos.

Para cambiar el mapa : haga clic en los botones verdes con una cruz de color negro para hacer un zoom, en el botón verde con un guión para alejar o en las flechas verdes para mapas adyacentes.


METAR-TAF: